ADDS METAR Data INFO
IDs: Format: Raw Decoded Include TAF

Data at: 0042 UTC 23 Oct 2017

KPVE 230035Z AUTO VRB04KT 1SM BR OVC003 20/20 A2993 RMK A01
KPVE 230015Z AUTO 16005KT 5SM BR SCT005 BKN026 OVC033 20/20 A2995 RMK A01
KPVE 222355Z AUTO VRB04KT 3SM BR SCT005 BKN009 OVC032 20/20 A2995 RMK A01 P0004
KPVE 222335Z AUTO 14004KT 5SM BR FEW007 BKN015 OVC029 20/20 A2996 RMK A01
KPVE 222315Z AUTO VRB03KT 4SM BR BKN026 BKN042 OVC070 20/20 A2996 RMK A01
KPVE 222255Z AUTO 00000KT 6SM BR SCT032 BKN075 OVC120 20/19 A2996 RMK A01
KPVE 222235Z AUTO VRB04KT 10SM FEW032 SCT045 OVC100 20/20 A2997 RMK A01
KPVE 222215Z AUTO 14004KT 6SM BR FEW020 SCT032 BKN049 20/20 A2997 RMK A01
KPVE 222155Z AUTO 14003KT 6SM BR SCT018 BKN026 OVC070 20/20 A2999 RMK A01 P0016
KPVE 222135Z AUTO VRB06KT 3SM BR FEW004 SCT022 BKN030 20/20 A2999 RMK A01
KPVE 222115Z AUTO 19005KT 1 1/2SM BR SCT004 BKN025 OVC034 20/20 A3000 RMK A01 VIS 3/4V2
KPVE 222055Z AUTO 18004KT 1 3/4SM BR FEW003 BKN025 OVC033 20/20 A3000 RMK A01 P0007
KPVE 222035Z AUTO 16005KT 2 1/2SM BR SCT026 BKN033 OVC041 21/19 A3000 RMK A01
KPVE 222015Z AUTO 15009G15KT 130V200 5SM HZ BKN032 OVC040 23/19 A3001 RMK A01
KPVE 221955Z AUTO 15008KT 10SM OVC033 24/18 A3000 RMK A01
KPVE 221935Z AUTO 15007G14KT 120V180 10SM OVC034 24/18 A3001 RMK A01
KPVE 221915Z AUTO 15006G18KT 10SM OVC036 24/17 A3001 RMK A01
KPVE 221855Z AUTO 18008KT 10SM BKN036 OVC042 24/17 A3002 RMK A01
KPVE 221835Z AUTO VRB05KT 10SM OVC040 24/17 A3003 RMK A01
KPVE 221815Z AUTO 17008KT 10SM BKN040 BKN049 24/17 A3004 RMK A01
KPVE 221755Z AUTO 16008G15KT 120V180 10SM BKN044 BKN049 24/17 A3004 RMK A01
KPVE 221735Z AUTO 15008KT 110V180 10SM BKN049 BKN060 23/17 A3005 RMK A01
KPVE 221715Z AUTO 14009KT 110V170 10SM SCT030 SCT038 BKN049 23/17 A3006 RMK A01
KPVE 221655Z AUTO 17007G17KT 130V190 10SM SCT029 BKN050 BKN065 23/17 A3008 RMK A01
KPVE 221635Z AUTO 18011G19KT 10SM FEW050 BKN060 23/16 A3008 RMK A01
KPVE 221615Z AUTO 17013G21KT 10SM OVC060 23/16 A3009 RMK A01
KPVE 221555Z AUTO 15008G16KT 130V190 10SM BKN060 23/16 A3008 RMK A01
KPVE 221535Z AUTO 16012G17KT 120V190 10SM FEW120 23/16 A3008 RMK A01
KPVE 221515Z AUTO 18011G18KT 10SM BKN120 22/16 A3007 RMK A01
KPVE 221455Z AUTO 18013G19KT 150V210 BKN120 23/16 A3007 RMK A01
KPVE 221435Z AUTO 15008G14KT 120V190 10SM BKN120 22/16 A3007 RMK A01
KPVE 221415Z AUTO 16007G14KT 120V200 10SM FEW120 21/16 A3007 RMK A01
KPVE 221355Z AUTO 15008G16KT 10SM FEW120 21/16 A3007 RMK A01
KPVE 221335Z AUTO VRB06G11KT 10SM CLR 21/16 A3008 RMK A01
KPVE 221315Z AUTO 15007G12KT 10SM CLR 20/15 A3008 RMK A01
KPVE 221255Z AUTO 16009G20KT 120V180 10SM CLR 20/15 A3007 RMK A01
KPVE 221235Z AUTO 17011KT 10SM CLR 20/15 A3007 RMK A01
KPVE 221215Z AUTO 16008G14KT 120V180 10SM CLR 20/15 A3008 RMK A01
KPVE 221155Z AUTO 16009G16KT 140V200 10SM FEW049 FEW085 FEW110 20/15 A3007 RMK A01
KPVE 220505Z AUTO VRB06G12KT 10SM BKN042 20/15 A3011 RMK A01
KPVE 220455Z AUTO 15006KT 10SM SCT041 20/16 A3011 RMK A01
KPVE 220435Z AUTO 16005KT 10SM CLR 20/16 A3012 RMK A01
KPVE 220415Z AUTO 15005KT 10SM CLR 20/16 A3012 RMK A01
KPVE 220355Z AUTO VRB04KT 10SM CLR 20/16 A3012 RMK A01
KPVE 220335Z AUTO 14004KT 10SM CLR 19/16 A3013 RMK A01
KPVE 220315Z AUTO VRB03KT 10SM CLR 19/16 A3012 RMK A01
KPVE 220255Z AUTO 13004KT 10SM CLR 19/16 A3012 RMK A01
KPVE 220235Z AUTO 00000KT 10SM FEW047 19/16 A3013 RMK A01
KPVE 220215Z AUTO 14003KT 10SM BKN047 20/16 A3014 RMK A01
KPVE 220155Z AUTO 12003KT 10SM OVC046 20/16 A3013 RMK A01
KPVE 220135Z AUTO 12004KT 10SM OVC043 20/16 A3013 RMK A01
KPVE 220115Z AUTO 13003KT 10SM FEW024 SCT029 OVC040 21/16 A3013 RMK A01
KPVE 220055Z AUTO 14003KT 10SM BKN027 OVC035 21/16 A3013 RMK A01
KPVE 220035Z AUTO 16003KT 10SM OVC026 22/16 A3013 RMK A01
KPVE 220015Z AUTO VRB03KT 10SM BKN028 BKN033 OVC042 22/16 A3013 RMK A01
KPVE 212355Z AUTO VRB04KT 10SM SCT030 OVC041 23/16 A3012 RMK A01
KPVE 212335Z AUTO 15004KT 10SM BKN039 23/17 A3012 RMK A01
KPVE 212315Z AUTO 14004KT 10SM CLR 23/17 A3011 RMK A01
KPVE 212255Z AUTO VRB04G10KT 10SM CLR 24/17 A3012 RMK A01
KPVE 212235Z AUTO 13007G12KT 100V160 10SM FEW039 FEW055 25/17 A3011 RMK A01
KPVE 212215Z AUTO VRB06G13KT 10SM FEW041 BKN055 25/17 A3012 RMK A01
KPVE 212155Z AUTO 13009G15KT 10SM BKN055 25/17 A3012 RMK A01
KPVE 212135Z AUTO 16007KT 130V190 10SM SCT042 BKN050 25/17 A3013 RMK A01
KPVE 212115Z AUTO 15009KT 10SM BKN041 26/17 A3013 RMK A01
KPVE 212055Z AUTO 13007G13KT 10SM CLR 26/16 A3013 RMK A01
KPVE 212035Z AUTO 16008G13KT 130V190 10SM CLR 26/17 A3013 RMK A01
KPVE 212015Z AUTO VRB05KT 10SM CLR 26/16 A3013 RMK A01
KPVE 211955Z AUTO 15008KT 10SM CLR 26/16 A3013 RMK A01
KPVE 211935Z AUTO 15005KT 10SM CLR 25/16 A3013 RMK A01
KPVE 211915Z AUTO 16004KT 10SM CLR 24/15 A3013 RMK A01
KPVE 211855Z AUTO VRB05G11KT 10SM CLR 24/15 A3014 RMK A01
KPVE 211835Z AUTO VRB05G10KT 10SM CLR 24/15 A3014 RMK A01
KPVE 211815Z AUTO VRB05KT 10SM CLR 24/15 A3015 RMK A01
KPVE 211755Z AUTO VRB05G11KT 10SM CLR 24/14 A3016 RMK A01
KPVE 211735Z AUTO VRB05G12KT 10SM CLR 23/13 A3017 RMK A01
KPVE 211715Z AUTO 18008KT 10SM CLR 22/13 A3018 RMK A01
KPVE 211655Z AUTO 17005G10KT 10SM CLR 22/13 A3019 RMK A01
KPVE 211635Z AUTO VRB05G11KT 10SM CLR 21/12 A3020 RMK A01
KPVE 211615Z AUTO 17007G12KT 10SM CLR 21/12 A3019 RMK A01
KPVE 211555Z AUTO 15006KT 10SM CLR 21/12 A3020 RMK A01
KPVE 211535Z AUTO 16005KT 10SM CLR 21/12 A3020 RMK A01
KPVE 211515Z AUTO 14005KT 10SM CLR 20/11 A3020 RMK A01
KPVE 211455Z AUTO VRB05KT 10SM CLR 19/11 A3021 RMK A01
KPVE 211435Z AUTO 00000KT 10SM CLR 17/11 A3021 RMK A01
KPVE 211415Z AUTO 00000KT 10SM CLR 15/11 A3020 RMK A01
KPVE 211355Z AUTO 00000KT 10SM CLR 14/11 A3020 RMK A01
KPVE 211335Z AUTO 00000KT 10SM CLR 12/11 A3019 RMK A01
KPVE 211315Z AUTO 00000KT 10SM CLR 11/10 A3019 RMK A01
KPVE 211255Z AUTO 00000KT 10SM CLR 10/09 A3018 RMK A01